Brush Creek, Arkansas
Current Conditions -  °F | °C
As of 1:56 AM on Thursday 29 Jan 2015 (Local Time) from KADF Reporting Station
Clear Clear  
Wind Chill: 46°   Ceiling: Unl
Heat Index: 46°   Visibility: 10mi
Dew Point: 45°   Wind: 0mph
Humidity: 97%   Direction: NA
Pressure: 30.07"   Gusts: NA
Location:  34.2195°N, 92.6052°W
Report Text: KADF 290756Z AUTO 00000KT 10SM CLR 08/07 A3007 RMK AO2 T00770072 SLP197
Loading
Personal Weather Stations






























Interactive Weather Map New forecast layout! Learn more

10-Day Weather Forecast

Advertisements
Track Severe Weather on mobile